Time;durP1;ratioP1;P1;durP2;ratioP2;P2;SDS_P1;SDS_P2;PMS_P1;PMS_P2;Temp;Humidity;BMP_temperature;BMP_pressure;BME280_temperature;BME280_humidity;BME280_pressure;Samples;Min_cycle;Max_cycle;Signal;HPM_P1;HPM_P2
2022/06/20 00:00:07;;;;;;;14.48;3.53;;;13.70;99.90;;;;;;5088287;28;20036;-86
2022/06/20 00:02:37;;;;;;;6.05;1.35;;;13.70;99.90;;;;;;5103506;28;20039;-84
2022/06/20 00:05:04;;;;;;;9.13;2.05;;;13.60;99.90;;;;;;5102975;28;20047;-86
2022/06/20 00:07:30;;;;;;;8.38;1.63;;;13.70;99.90;;;;;;5106831;28;20047;-84
2022/06/20 00:09:55;;;;;;;7.50;1.60;;;13.70;99.90;;;;;;5105880;28;20077;-86
2022/06/20 00:12:24;;;;;;;9.77;1.60;;;13.60;99.90;;;;;;5108327;28;20130;-86
2022/06/20 00:14:56;;;;;;;5.05;2.00;;;13.70;99.90;;;;;;5102962;28;20075;-86
2022/06/20 00:17:22;;;;;;;11.57;1.50;;;13.60;99.90;;;;;;5088951;28;20043;-86
2022/06/20 00:19:48;;;;;;;10.25;1.92;;;13.70;99.90;;;;;;5100129;28;20042;-85
2022/06/20 00:22:14;;;;;;;10.50;1.67;;;13.60;99.90;;;;;;5106893;28;20028;-86
2022/06/20 00:24:39;;;;;;;8.00;1.38;;;13.60;99.90;;;;;;5104186;28;20039;-86
2022/06/20 00:27:08;;;;;;;4.95;1.30;;;13.60;99.90;;;;;;5106822;28;20048;-86
2022/06/20 00:29:35;;;;;;;5.13;1.25;;;13.60;99.90;;;;;;5099978;28;20031;-85
2022/06/20 00:32:02;;;;;;;6.30;1.10;;;13.60;99.90;;;;;;5107699;28;20486;-86
2022/06/20 00:34:28;;;;;;;10.80;2.55;;;13.60;99.90;;;;;;5105798;28;20047;-84
2022/06/20 00:36:53;;;;;;;7.28;2.00;;;13.60;99.90;;;;;;5106845;28;20039;-84
2022/06/20 00:39:21;;;;;;;6.82;1.42;;;13.60;99.90;;;;;;5107529;28;20035;-85
2022/06/20 00:41:48;;;;;;;8.10;1.83;;;13.50;99.90;;;;;;5104730;28;20047;-86
2022/06/20 00:44:20;;;;;;;7.10;2.28;;;13.50;99.90;;;;;;5086942;28;20479;-87
2022/06/20 00:46:51;;;;;;;6.22;1.40;;;13.50;99.90;;;;;;5085069;28;20051;-86
2022/06/20 00:49:29;;;;;;;4.28;1.20;;;13.50;99.90;;;;;;5106437;28;20085;-86
2022/06/20 00:52:11;;;;;;;6.10;2.17;;;13.50;99.90;;;;;;5103544;28;20421;-87
2022/06/20 00:54:43;;;;;;;7.93;1.50;;;13.50;99.90;;;;;;5106468;28;20082;-86
2022/06/20 00:57:38;;;;;;;6.05;1.95;;;13.50;99.90;;;;;;5100141;28;20287;-86
2022/06/20 01:00:08;;;;;;;11.77;2.95;;;13.30;99.90;;;;;;5076137;28;20055;-86
2022/06/20 01:02:53;;;;;;;5.25;1.50;;;13.30;99.90;;;;;;5105805;28;20069;-85
2022/06/20 01:05:23;;;;;;;6.85;2.08;;;13.20;99.90;;;;;;5103665;28;20627;-85
2022/06/20 01:08:09;;;;;;;6.55;1.67;;;13.30;99.90;;;;;;5091312;28;20126;-76
2022/06/20 01:10:43;;;;;;;6.65;1.83;;;13.10;99.90;;;;;;5085138;28;20048;-85
2022/06/20 01:13:14;;;;;;;6.38;1.70;;;13.10;99.90;;;;;;5071639;28;20402;-85
2022/06/20 01:15:42;;;;;;;9.40;2.15;;;13.10;99.90;;;;;;5086316;28;20100;-84
2022/06/20 01:18:20;;;;;;;6.90;1.45;;;12.90;99.90;;;;;;5086285;28;20124;-84
2022/06/20 01:20:48;;;;;;;6.63;2.25;;;12.90;99.90;;;;;;5105938;28;20046;-85
2022/06/20 01:23:50;;;;;;;11.65;2.25;;;12.80;99.90;;;;;;5086415;28;20106;-84
2022/06/20 01:26:37;;;;;;;4.13;1.50;;;12.80;99.90;;;;;;5087042;28;20043;-86
2022/06/20 01:29:07;;;;;;;6.85;2.03;;;12.80;99.90;;;;;;5103505;28;20452;-85
2022/06/20 01:31:43;;;;;;;11.30;2.45;;;12.70;99.90;;;;;;5104186;28;20447;-84
2022/06/20 01:34:13;;;;;;;6.47;1.17;;;12.70;99.90;;;;;;5085877;28;20044;-84
2022/06/20 01:39:25;;;;;;;7.97;2.33;;;12.60;99.90;;;;;;5087412;28;20513;-86
2022/06/20 01:44:41;;;;;;;8.75;1.90;;;12.60;99.90;;;;;;5065066;22;20086;-86
2022/06/20 01:47:07;;;;;;;7.65;1.80;;;12.50;99.90;;;;;;5012430;28;20121;-86
2022/06/20 01:49:34;;;;;;;7.40;1.90;;;12.50;99.90;;;;;;5013247;28;20116;-84
2022/06/20 01:52:08;;;;;;;4.03;1.40;;;12.50;99.90;;;;;;5025330;28;20042;-85
2022/06/20 01:54:41;;;;;;;4.78;0.95;;;12.60;99.90;;;;;;5026245;28;20034;-86
2022/06/20 01:57:10;;;;;;;7.43;1.40;;;12.60;99.90;;;;;;5025595;28;20052;-84
2022/06/20 01:59:46;;;;;;;4.85;1.17;;;12.70;99.90;;;;;;5031140;28;20080;-85
2022/06/20 02:02:12;;;;;;;6.15;1.85;;;12.70;99.90;;;;;;5030379;28;20067;-86
2022/06/20 02:04:38;;;;;;;7.78;3.25;;;12.80;99.90;;;;;;5044748;28;20434;-85
2022/06/20 02:07:08;;;;;;;8.15;1.40;;;12.90;99.90;;;;;;5043122;28;20414;-86
2022/06/20 02:09:34;;;;;;;;;;;12.80;99.90;;;;;;5036396;28;20095;-86
2022/06/20 02:12:01;;;;;;;4.53;1.30;;;12.90;99.90;;;;;;5024714;28;19959;-85
2022/06/20 02:14:37;;;;;;;7.93;1.38;;;12.90;99.90;;;;;;5044962;28;20110;-85
2022/06/20 02:17:18;;;;;;;3.95;1.25;;;12.90;99.90;;;;;;5021846;28;20036;-84
2022/06/20 02:19:48;;;;;;;8.43;1.98;;;13.00;99.90;;;;;;5026175;28;20033;-86
2022/06/20 02:22:16;;;;;;;5.60;1.73;;;13.00;99.90;;;;;;5038230;28;20080;-85
2022/06/20 02:24:46;;;;;;;10.40;2.85;;;13.00;99.90;;;;;;5037399;28;20064;-86
2022/06/20 02:27:24;;;;;;;13.40;2.47;;;13.00;99.90;;;;;;5024892;28;20123;-86
2022/06/20 02:29:50;;;;;;;7.93;1.77;;;13.00;99.90;;;;;;5042344;28;20081;-86
2022/06/20 02:32:20;;;;;;;6.45;1.85;;;13.00;99.90;;;;;;5042945;28;20065;-87
2022/06/20 02:34:46;;;;;;;7.78;1.27;;;13.00;99.90;;;;;;5028688;28;20116;-84
2022/06/20 02:37:19;;;;;;;19.88;2.38;;;13.00;99.90;;;;;;5010090;28;20491;-86
2022/06/20 02:39:45;;;;;;;10.30;3.38;;;12.90;99.90;;;;;;5029578;28;20052;-84
2022/06/20 02:42:21;;;;;;;6.65;1.73;;;12.90;99.90;;;;;;5008973;28;20037;-84
2022/06/20 02:44:49;;;;;;;12.85;1.42;;;12.80;99.90;;;;;;5028507;28;20435;-84
2022/06/20 02:47:17;;;;;;;8.63;1.50;;;12.70;99.90;;;;;;5028654;28;20345;-84
2022/06/20 02:49:44;;;;;;;6.53;2.15;;;12.70;99.90;;;;;;5043691;28;20056;-84
2022/06/20 02:52:16;;;;;;;8.40;1.70;;;12.80;99.90;;;;;;5042393;28;20419;-85
2022/06/20 02:54:42;;;;;;;6.65;2.00;;;12.70;99.90;;;;;;5046028;28;20037;-84
2022/06/20 02:57:16;;;;;;;8.48;1.65;;;12.60;99.90;;;;;;5043355;28;20598;-86
2022/06/20 02:59:50;;;;;;;12.50;2.47;;;12.60;99.90;;;;;;5025443;28;20045;-85
2022/06/20 03:02:21;;;;;;;6.28;1.35;;;12.50;99.90;;;;;;5026549;28;20054;-85
2022/06/20 03:04:47;;;;;;;6.18;1.55;;;12.50;99.90;;;;;;5029230;28;20336;-85
2022/06/20 03:07:29;;;;;;;8.82;1.42;;;12.50;99.90;;;;;;5039415;28;20123;-85
2022/06/20 03:10:05;;;;;;;6.20;1.80;;;12.50;99.90;;;;;;5035014;28;20045;-85
2022/06/20 03:12:31;;;;;;;12.07;2.25;;;12.50;99.90;;;;;;5017685;28;20040;-82
2022/06/20 03:15:00;;;;;;;5.75;1.88;;;12.20;99.90;;;;;;5031597;28;20052;-86
2022/06/20 03:17:26;;;;;;;5.55;1.55;;;12.10;99.90;;;;;;5006649;28;20049;-85
2022/06/20 03:19:56;;;;;;;8.60;2.03;;;12.10;99.90;;;;;;5046998;28;20123;-86
2022/06/20 03:22:42;;;;;;;6.47;2.25;;;12.20;99.90;;;;;;5027139;28;20076;-85
2022/06/20 03:25:12;;;;;;;5.22;1.75;;;12.20;99.90;;;;;;5007531;28;20046;-85
2022/06/20 03:27:39;;;;;;;5.57;2.08;;;12.10;99.90;;;;;;5044856;28;20114;-84
2022/06/20 03:30:22;;;;;;;9.50;2.35;;;12.10;99.90;;;;;;5025064;28;20060;-84
2022/06/20 03:32:48;;;;;;;8.45;2.45;;;12.20;99.90;;;;;;5027124;28;20076;-85
2022/06/20 03:35:14;;;;;;;7.63;2.08;;;12.10;99.90;;;;;;5045229;28;20037;-83
2022/06/20 03:37:40;;;;;;;8.23;3.00;;;12.10;99.90;;;;;;5044456;28;20775;-83
2022/06/20 03:40:06;;;;;;;8.32;2.85;;;12.00;99.90;;;;;;5033907;28;20364;-84
2022/06/20 03:42:32;;;;;;;8.35;2.30;;;12.00;99.90;;;;;;5047562;28;20115;-83
2022/06/20 03:44:59;;;;;;;5.18;1.63;;;12.00;99.90;;;;;;5023734;28;20149;-83
2022/06/20 03:47:39;;;;;;;8.38;2.38;;;11.90;99.90;;;;;;5012661;28;20120;-84
2022/06/20 03:50:10;;;;;;;8.60;2.22;;;11.90;99.90;;;;;;5035386;28;20116;-84
2022/06/20 03:52:46;;;;;;;6.18;1.88;;;11.80;99.90;;;;;;5045077;28;20388;-84
2022/06/20 03:55:14;;;;;;;3.50;1.63;;;11.80;99.90;;;;;;5037967;28;20052;-83
2022/06/20 03:57:52;;;;;;;7.28;3.05;;;11.80;99.90;;;;;;5029649;28;20387;-84
2022/06/20 04:00:38;;;;;;;5.50;2.13;;;11.80;99.90;;;;;;5024877;28;20041;-83
2022/06/20 04:03:20;;;;;;;11.63;2.92;;;11.80;99.90;;;;;;5023982;28;20045;-85
2022/06/20 04:05:58;;;;;;;6.70;2.33;;;11.70;99.90;;;;;;5018803;28;20045;-83
2022/06/20 04:11:49;;;;;;;5.25;2.40;;;11.90;99.90;;;;;;5027625;28;20504;-84
2022/06/20 04:14:31;;;;;;;9.07;2.55;;;12.10;99.90;;;;;;5040600;28;20064;-83
2022/06/20 04:20:01;;;;;;;7.15;3.05;;;12.40;99.90;;;;;;4999799;28;20085;-83
2022/06/20 04:22:33;;;;;;;4.30;1.90;;;12.30;99.90;;;;;;5037175;28;20511;-84
2022/06/20 04:25:12;;;;;;;6.25;2.15;;;12.30;99.90;;;;;;5041013;28;20049;-83
2022/06/20 04:27:46;;;;;;;5.32;2.22;;;12.20;99.90;;;;;;5021931;28;20057;-83
2022/06/20 04:30:39;;;;;;;7.75;2.45;;;12.40;99.90;;;;;;5015063;28;20403;-83
2022/06/20 04:33:17;;;;;;;6.30;2.20;;;12.60;99.90;;;;;;5038713;28;20051;-84
2022/06/20 04:36:11;;;;;;;12.13;3.15;;;12.40;99.90;;;;;;5043032;28;20041;-83
2022/06/20 04:38:44;;;;;;;6.65;3.03;;;12.30;99.90;;;;;;5050160;28;20507;-84
2022/06/20 04:41:23;;;;;;;6.95;2.35;;;12.30;99.90;;;;;;5028910;28;20048;-83
2022/06/20 04:43:55;;;;;;;12.77;3.50;;;12.20;99.90;;;;;;5023860;28;20071;-84
2022/06/20 04:46:32;;;;;;;8.05;3.10;;;12.20;99.90;;;;;;5031000;28;20559;-84
2022/06/20 04:49:00;;;;;;;9.00;2.42;;;12.60;99.90;;;;;;5005818;28;20052;-83
2022/06/20 04:51:47;;;;;;;8.68;3.10;;;13.00;99.90;;;;;;5021998;28;20048;-86
2022/06/20 04:54:17;;;;;;;6.40;3.20;;;13.00;99.90;;;;;;5007513;28;20053;-84
2022/06/20 04:56:44;;;;;;;5.43;2.85;;;12.90;99.90;;;;;;5007592;28;20095;-83
2022/06/20 04:59:21;;;;;;;11.60;2.80;;;12.90;99.90;;;;;;5024047;28;20037;-83
2022/06/20 05:01:48;;;;;;;16.17;4.25;;;13.00;99.90;;;;;;5044378;28;20121;-84
2022/06/20 05:04:31;;;;;;;12.05;3.67;;;12.90;99.90;;;;;;5037951;28;20033;-85
2022/06/20 05:07:00;;;;;;;10.38;3.42;;;13.10;99.90;;;;;;5007919;28;20046;-79
2022/06/20 05:09:40;;;;;;;17.15;3.10;;;13.10;99.90;;;;;;4990562;28;20116;-84
2022/06/20 05:12:18;;;;;;;7.43;2.50;;;13.10;99.90;;;;;;5026044;28;20064;-91
2022/06/20 05:15:10;;;;;;;13.35;3.78;;;13.10;99.90;;;;;;5007719;28;20377;-85
2022/06/20 05:17:38;;;;;;;9.90;3.00;;;13.20;99.90;;;;;;5021107;28;20053;-83
2022/06/20 05:20:17;;;;;;;13.60;4.53;;;13.30;99.90;;;;;;5027398;28;20095;-81
2022/06/20 05:22:50;;;;;;;13.02;4.85;;;13.30;99.90;;;;;;5006632;28;20057;-82
2022/06/20 05:25:21;;;;;;;13.57;2.85;;;13.40;99.90;;;;;;4998413;28;20038;-82
2022/06/20 05:27:57;;;;;;;8.23;3.53;;;13.50;99.90;;;;;;5011948;28;20045;-83
2022/06/20 05:30:27;;;;;;;10.63;3.70;;;13.60;99.90;;;;;;5016834;28;20123;-83
2022/06/20 05:33:20;;;;;;;10.00;4.40;;;13.60;99.90;;;;;;5040003;28;20499;-83
2022/06/20 05:35:51;;;;;;;9.50;3.83;;;13.70;99.90;;;;;;5036054;28;20054;-83
2022/06/20 05:38:39;;;;;;;14.52;4.13;;;13.80;99.90;;;;;;5033779;28;20045;-84
2022/06/20 05:41:07;;;;;;;12.10;4.68;;;13.90;99.90;;;;;;5031909;28;20415;-83
2022/06/20 05:43:34;;;;;;;13.85;4.03;;;14.00;99.90;;;;;;5024992;28;20411;-81
2022/06/20 05:46:07;;;;;;;13.52;4.43;;;14.10;99.90;;;;;;5029229;28;20096;-82
2022/06/20 05:48:40;;;;;;;11.35;3.47;;;14.10;99.90;;;;;;5041811;28;20033;-83
2022/06/20 05:51:08;;;;;;;11.30;2.85;;;14.10;99.90;;;;;;5016280;28;20030;-84
2022/06/20 05:53:39;;;;;;;9.27;4.07;;;14.20;99.90;;;;;;5045456;28;20039;-79
2022/06/20 05:56:20;;;;;;;14.48;4.95;;;14.30;99.90;;;;;;5042115;28;20045;-83
2022/06/20 05:58:47;;;;;;;12.93;4.75;;;14.30;99.90;;;;;;5040232;28;20083;-80
2022/06/20 06:01:18;;;;;;;14.48;5.55;;;14.20;99.90;;;;;;5027076;28;20053;-82
2022/06/20 06:03:43;;;;;;;;;;;14.30;99.90;;;;;;5020433;28;20041;-82
2022/06/20 06:06:19;;;;;;;12.43;3.28;;;14.30;99.90;;;;;;4991843;28;20008;-82
2022/06/20 06:08:47;;;;;;;9.02;3.05;;;14.40;99.90;;;;;;5009488;28;20041;-82
2022/06/20 06:11:19;;;;;;;9.52;3.30;;;14.40;99.90;;;;;;5038740;28;20041;-82
2022/06/20 06:13:54;;;;;;;9.55;2.95;;;14.60;99.90;;;;;;5025149;28;20044;-82
2022/06/20 06:16:48;;;;;;;12.57;3.58;;;14.50;99.90;;;;;;5045744;28;20041;-82
2022/06/20 06:19:29;;;;;;;17.50;4.95;;;14.50;99.90;;;;;;5049030;28;20399;-82
2022/06/20 06:21:57;;;;;;;11.85;3.92;;;14.70;99.90;;;;;;5030475;28;20053;-82
2022/06/20 06:24:25;;;;;;;18.95;4.40;;;14.60;99.90;;;;;;5043487;28;20049;-82
2022/06/20 06:26:55;;;;;;;8.45;4.25;;;14.60;99.90;;;;;;5032003;28;20114;-82
2022/06/20 06:29:36;;;;;;;10.82;2.40;;;14.60;99.90;;;;;;5043062;28;20101;-83
2022/06/20 06:32:10;;;;;;;18.50;2.83;;;14.60;99.90;;;;;;5048651;28;20041;-83
2022/06/20 06:34:52;;;;;;;11.05;4.15;;;14.70;99.90;;;;;;5041625;28;20037;-81
2022/06/20 06:37:31;;;;;;;23.38;4.15;;;14.80;99.90;;;;;;5028627;28;20440;-83
2022/06/20 06:40:19;;;;;;;8.68;3.25;;;14.90;99.90;;;;;;5047370;28;20044;-82
2022/06/20 06:42:47;;;;;;;11.43;3.90;;;15.00;99.90;;;;;;5040356;28;20083;-81
2022/06/20 06:45:21;;;;;;;11.25;3.25;;;15.00;99.90;;;;;;5033773;28;20045;-85
2022/06/20 06:47:59;;;;;;;13.02;3.90;;;15.10;99.90;;;;;;5037237;28;20389;-81
2022/06/20 06:50:59;;;;;;;16.98;3.85;;;15.30;99.90;;;;;;5015083;28;20045;-81
2022/06/20 06:53:46;;;;;;;11.68;3.08;;;15.90;99.90;;;;;;5027112;28;20399;-80
2022/06/20 06:56:28;;;;;;;8.07;2.95;;;16.10;99.90;;;;;;5048295;28;20067;-80
2022/06/20 06:59:09;;;;;;;7.78;2.58;;;16.20;99.90;;;;;;5027910;28;20132;-78
2022/06/20 07:01:41;;;;;;;12.02;5.18;;;17.10;99.90;;;;;;5048038;28;20036;-80
2022/06/20 07:04:26;;;;;;;7.57;2.75;;;17.60;99.90;;;;;;5036611;28;20044;-79
2022/06/20 07:07:18;;;;;;;9.95;3.92;;;17.40;99.90;;;;;;5010974;28;20049;-82
2022/06/20 07:09:52;;;;;;;7.28;3.22;;;17.80;99.90;;;;;;5010080;28;20464;-81
2022/06/20 07:12:35;;;;;;;7.90;2.40;;;18.70;99.90;;;;;;5013871;28;20081;-81
2022/06/20 07:15:10;;;;;;;11.23;3.55;;;19.80;99.90;;;;;;5015087;28;20067;-82
2022/06/20 07:17:54;;;;;;;8.20;3.92;;;20.40;99.90;;;;;;5040936;28;20038;-81
2022/06/20 07:20:24;;;;;;;10.38;2.88;;;20.30;99.90;;;;;;5021306;28;20049;-82
2022/06/20 07:22:50;;;;;;;10.00;3.03;;;20.90;99.90;;;;;;5027551;28;20548;-80
2022/06/20 07:25:27;;;;;;;10.40;2.60;;;20.70;99.90;;;;;;5027193;28;20087;-81
2022/06/20 07:28:02;;;;;;;9.85;2.92;;;19.00;99.90;;;;;;5042291;28;20080;-83
2022/06/20 07:30:33;;;;;;;8.82;2.20;;;18.50;99.90;;;;;;5025134;28;20111;-84
2022/06/20 07:33:20;;;;;;;10.02;2.78;;;19.50;99.90;;;;;;5012566;28;20550;-87
2022/06/20 07:35:50;;;;;;;5.82;1.45;;;19.80;99.90;;;;;;5026528;28;20550;-85
2022/06/20 07:38:21;;;;;;;6.05;1.42;;;20.10;99.90;;;;;;5028468;28;20045;-84
2022/06/20 07:40:53;;;;;;;8.68;1.80;;;20.70;99.90;;;;;;5023593;28;20111;-83
2022/06/20 07:43:43;;;;;;;6.97;1.73;;;20.50;99.90;;;;;;5036688;28;20067;-84
2022/06/20 07:46:21;;;;;;;6.43;0.80;;;19.30;99.90;;;;;;5021047;28;20119;-85
2022/06/20 07:48:52;;;;;;;6.28;1.55;;;18.20;99.90;;;;;;5027450;28;20033;-82
2022/06/20 07:51:23;;;;;;;3.67;1.25;;;17.40;99.90;;;;;;5033415;28;20124;-81
2022/06/20 07:54:00;;;;;;;5.25;1.80;;;16.70;99.90;;;;;;5009065;28;20120;-77
2022/06/20 07:56:32;;;;;;;5.40;1.30;;;17.00;99.90;;;;;;5010249;28;20045;-85
2022/06/20 07:59:05;;;;;;;2.33;1.00;;;17.40;99.90;;;;;;4987105;28;20155;-83
2022/06/20 08:01:42;;;;;;;4.75;1.20;;;17.60;99.90;;;;;;5016690;28;20036;-85
2022/06/20 08:04:10;;;;;;;4.55;1.40;;;17.70;99.90;;;;;;5031092;28;20076;-86
2022/06/20 08:06:54;;;;;;;4.90;1.42;;;17.70;99.90;;;;;;5027858;28;20041;-85
2022/06/20 08:09:30;;;;;;;2.85;1.30;;;17.90;99.90;;;;;;5027329;28;20041;-85
2022/06/20 08:12:02;;;;;;;6.30;1.75;;;18.50;99.90;;;;;;5028120;28;20052;-88
2022/06/20 08:14:42;;;;;;;5.40;1.90;;;18.00;99.90;;;;;;5019169;28;20473;-85
2022/06/20 08:17:10;;;;;;;2.33;1.07;;;17.70;99.90;;;;;;5028232;28;20038;-84
2022/06/20 08:19:38;;;;;;;3.78;1.45;;;17.90;99.90;;;;;;5020799;28;20131;-86
2022/06/20 08:22:35;;;;;;;6.75;0.95;;;18.10;99.90;;;;;;5027631;28;20037;-86
2022/06/20 08:25:12;;;;;;;6.72;2.13;;;17.80;99.90;;;;;;5008507;28;20411;-87
2022/06/20 08:27:53;;;;;;;2.88;1.40;;;17.30;99.90;;;;;;5019707;28;20076;-85
2022/06/20 08:30:44;;;;;;;4.40;1.73;;;17.80;99.90;;;;;;4988538;28;20042;-77
2022/06/20 08:33:23;;;;;;;4.50;1.40;;;17.50;99.90;;;;;;5015236;28;20149;-85
2022/06/20 08:36:02;;;;;;;4.65;1.23;;;17.00;99.90;;;;;;5022176;28;20037;-77
2022/06/20 08:38:47;;;;;;;3.20;1.50;;;17.30;99.90;;;;;;5025585;28;20488;-86
2022/06/20 08:41:18;;;;;;;6.93;1.83;;;18.20;99.90;;;;;;5029092;28;20112;-87
2022/06/20 08:44:04;;;;;;;8.80;3.75;;;18.20;99.90;;;;;;5008858;28;20081;-83
2022/06/20 08:46:41;;;;;;;3.70;1.10;;;17.70;99.90;;;;;;5020140;28;20057;-84
2022/06/20 08:49:43;;;;;;;7.32;1.88;;;17.80;99.90;;;;;;5038931;28;20391;-83
2022/06/20 08:52:30;;;;;;;3.97;1.45;;;17.90;99.90;;;;;;5033669;28;20075;-84
2022/06/20 08:55:14;;;;;;;7.95;1.92;;;17.90;99.90;;;;;;5024995;28;20476;-84
2022/06/20 08:57:57;;;;;;;5.63;1.58;;;17.90;99.90;;;;;;5009476;28;20526;-80
2022/06/20 09:00:52;;;;;;;7.38;1.95;;;17.50;99.90;;;;;;5027279;28;20048;-86
2022/06/20 09:04:03;;;;;;;5.85;1.85;;;17.00;99.90;;;;;;5008872;28;20060;-83
2022/06/20 09:06:47;;;;;;;7.80;1.75;;;16.70;99.90;;;;;;5016419;28;20056;-86
2022/06/20 09:09:57;;;;;;;9.05;2.85;;;16.60;99.90;;;;;;5009412;28;20053;-87
2022/06/20 09:12:46;;;;;;;10.13;1.83;;;16.50;99.90;;;;;;5021773;28;20105;-85
2022/06/20 09:15:35;;;;;;;12.75;2.10;;;16.60;99.90;;;;;;5034168;28;20550;-83
2022/06/20 09:18:21;;;;;;;8.13;2.03;;;17.20;99.90;;;;;;5046726;28;20086;-83
2022/06/20 09:21:10;;;;;;;10.15;2.17;;;17.70;99.90;;;;;;5046742;28;20050;-82
2022/06/20 09:23:48;;;;;;;11.68;2.13;;;18.00;99.90;;;;;;5028565;28;20198;-82
2022/06/20 09:26:25;;;;;;;4.43;1.27;;;17.40;99.90;;;;;;5041541;28;20036;-84
2022/06/20 09:28:59;;;;;;;8.60;2.42;;;17.30;99.90;;;;;;5022954;28;20044;-83
2022/06/20 09:31:46;;;;;;;10.32;2.17;;;17.70;99.90;;;;;;5036701;28;20572;-83
2022/06/20 09:34:32;;;;;;;4.40;1.00;;;18.00;99.90;;;;;;5045983;28;20041;-83
2022/06/20 09:37:22;;;;;;;5.78;1.75;;;18.10;99.90;;;;;;4997336;28;20053;-82
2022/06/20 09:40:09;;;;;;;8.13;2.20;;;18.30;99.90;;;;;;5013591;28;20038;-75
2022/06/20 09:42:46;;;;;;;4.05;0.70;;;18.60;99.90;;;;;;5027698;28;20516;-83
2022/06/20 09:45:29;;;;;;;5.82;1.13;;;18.20;99.90;;;;;;5009319;28;20058;-83
2022/06/20 09:48:07;;;;;;;9.13;2.45;;;18.40;99.90;;;;;;5012665;28;20053;-81
2022/06/20 09:50:59;;;;;;;7.63;1.85;;;18.30;99.90;;;;;;5039316;28;20552;-82
2022/06/20 09:53:50;;;;;;;7.50;1.38;;;18.60;99.90;;;;;;5027705;28;20095;-84
2022/06/20 09:56:30;;;;;;;4.57;1.50;;;17.80;99.90;;;;;;5008674;28;20049;-78
2022/06/20 09:59:09;;;;;;;4.35;1.40;;;17.90;99.90;;;;;;5011332;28;20440;-79
2022/06/20 10:02:08;;;;;;;3.28;1.55;;;18.00;99.90;;;;;;5028508;28;20495;-82
2022/06/20 10:04:47;;;;;;;3.08;0.98;;;18.20;99.90;;;;;;5041618;28;20053;-79
2022/06/20 10:07:39;;;;;;;3.53;1.17;;;18.00;99.90;;;;;;4994726;28;20411;-78
2022/06/20 10:10:17;;;;;;;6.50;1.17;;;18.20;99.90;;;;;;5006783;28;20503;-79
2022/06/20 10:12:51;;;;;;;7.15;1.60;;;18.40;99.90;;;;;;5048533;28;20045;-76
2022/06/20 10:15:36;;;;;;;7.70;1.33;;;18.70;99.90;;;;;;5037973;28;20044;-76
2022/06/20 10:18:26;;;;;;;2.22;1.45;;;18.80;99.90;;;;;;5029268;28;20046;-74
2022/06/20 10:21:03;;;;;;;4.28;1.27;;;18.80;99.90;;;;;;5029006;28;20415;-78
2022/06/20 10:24:14;;;;;;;3.63;1.30;;;19.20;99.90;;;;;;5011473;28;20045;-79
2022/06/20 10:26:46;;;;;;;4.95;1.85;;;19.00;99.90;;;;;;4998508;28;20586;-82
2022/06/20 10:29:35;;;;;;;7.82;1.73;;;18.60;99.90;;;;;;5029838;28;20041;-82
2022/06/20 10:32:10;;;;;;;3.78;1.92;;;18.50;99.90;;;;;;5047514;28;20049;-82
2022/06/20 10:34:54;;;;;;;6.57;2.17;;;18.30;99.90;;;;;;5032194;28;20041;-80
2022/06/20 10:37:43;;;;;;;13.07;2.72;;;18.50;99.90;;;;;;5021805;28;20476;-88
2022/06/20 10:40:47;;;;;;;10.23;1.83;;;18.20;99.90;;;;;;5028729;28;20135;-83
2022/06/20 10:43:46;;;;;;;5.78;1.73;;;17.80;99.90;;;;;;5011123;28;20495;-75
2022/06/20 10:46:39;;;;;;;6.55;2.17;;;18.00;99.90;;;;;;5029409;28;20135;-78
2022/06/20 10:49:08;;;;;;;6.68;1.77;;;18.40;99.90;;;;;;5020425;28;20046;-80
2022/06/20 10:51:56;;;;;;;5.05;3.05;;;18.20;99.90;;;;;;5018911;28;20045;-81
2022/06/20 10:54:59;;;;;;;8.00;1.60;;;18.00;99.90;;;;;;4996520;28;20400;-84
2022/06/20 10:58:00;;;;;;;6.78;2.33;;;18.20;99.90;;;;;;5002461;28;20432;-86
2022/06/20 11:00:31;;;;;;;3.83;1.27;;;18.70;99.90;;;;;;5028998;28;20179;-83
2022/06/20 11:03:03;;;;;;;6.10;2.03;;;18.20;99.90;;;;;;5040015;28;20132;-85
2022/06/20 11:05:35;;;;;;;6.85;1.48;;;17.90;99.90;;;;;;5014048;28;20061;-84
2022/06/20 11:08:12;;;;;;;8.52;1.90;;;17.50;99.90;;;;;;5031335;28;20072;-85
2022/06/20 11:11:03;;;;;;;4.25;1.45;;;17.30;99.90;;;;;;5034009;28;20053;-86
2022/06/20 11:13:37;;;;;;;;;;;17.20;99.90;;;;;;5035142;28;20085;-86
2022/06/20 11:16:21;;;;;;;6.88;2.05;;;17.20;99.90;;;;;;4998947;28;19960;-90
2022/06/20 11:19:12;;;;;;;10.23;2.53;;;17.80;99.90;;;;;;5050170;28;20049;-88
2022/06/20 11:21:41;;;;;;;6.70;1.55;;;18.40;99.90;;;;;;5021759;28;20288;-87
2022/06/20 11:24:28;;;;;;;4.10;1.20;;;18.50;99.90;;;;;;5016457;28;20036;-87
2022/06/20 11:27:04;;;;;;;5.55;1.98;;;18.40;99.90;;;;;;5044412;28;20037;-81
2022/06/20 11:29:37;;;;;;;3.47;1.38;;;18.50;99.90;;;;;;5029279;28;20048;-80
2022/06/20 11:32:14;;;;;;;7.30;3.58;;;18.60;99.90;;;;;;5021848;28;20041;-78
2022/06/20 11:35:18;;;;;;;3.13;1.40;;;18.90;99.90;;;;;;5031418;28;20038;-81
2022/06/20 11:37:53;;;;;;;2.58;0.93;;;19.10;99.90;;;;;;5036191;28;20447;-81
2022/06/20 11:40:41;;;;;;;4.35;1.20;;;18.70;99.90;;;;;;5041543;28;20045;-80
2022/06/20 11:43:19;;;;;;;7.43;1.52;;;18.40;99.90;;;;;;5036198;28;20140;-81
2022/06/20 11:46:12;;;;;;;3.45;1.25;;;18.60;99.90;;;;;;5054189;28;20049;-82
2022/06/20 11:48:56;;;;;;;8.80;1.45;;;18.50;99.90;;;;;;5018983;28;20630;-81
2022/06/20 11:51:41;;;;;;;9.70;1.55;;;18.20;99.90;;;;;;5038735;28;20049;-81
2022/06/20 11:54:19;;;;;;;7.20;1.63;;;18.00;99.90;;;;;;5035270;28;20053;-80
2022/06/20 11:56:54;;;;;;;7.40;1.60;;;17.80;99.90;;;;;;5036085;28;20073;-81
2022/06/20 11:59:30;;;;;;;4.97;2.70;;;17.40;99.90;;;;;;5042544;28;20037;-81
2022/06/20 12:02:23;;;;;;;7.28;1.50;;;17.50;99.90;;;;;;5055083;28;20037;-80
2022/06/20 12:05:15;;;;;;;6.15;1.35;;;18.10;99.90;;;;;;5005544;28;20041;-81
2022/06/20 12:08:08;;;;;;;4.10;1.58;;;18.50;99.90;;;;;;5040305;28;20078;-80
2022/06/20 12:10:52;;;;;;;5.93;1.55;;;18.40;99.90;;;;;;5035521;28;20048;-80
2022/06/20 12:13:42;;;;;;;4.85;1.20;;;17.80;99.90;;;;;;5053974;28;20395;-80
2022/06/20 12:16:33;;;;;;;4.93;1.58;;;17.60;99.90;;;;;;5040815;28;20052;-80
2022/06/20 12:24:51;;;;;;;10.02;1.30;;;18.40;99.90;;;;;;5041776;28;20408;-82
2022/06/20 12:27:19;;;;;;;6.50;1.30;;;17.90;99.90;;;;;;5032050;28;20049;-80
2022/06/20 12:29:46;;;;;;;4.35;1.05;;;17.70;99.90;;;;;;5008849;28;20037;-80
2022/06/20 12:32:27;;;;;;;4.50;1.40;;;18.20;99.90;;;;;;5029369;28;20056;-79
2022/06/20 12:35:17;;;;;;;2.25;0.80;;;18.20;99.90;;;;;;5024227;28;20037;-81
2022/06/20 12:37:55;;;;;;;2.72;1.05;;;17.90;99.90;;;;;;5028396;28;20112;-81
2022/06/20 12:40:34;;;;;;;4.80;1.40;;;18.10;99.90;;;;;;5020509;28;20446;-87
2022/06/20 12:43:06;;;;;;;2.88;1.23;;;18.10;99.90;;;;;;5035621;28;20056;-78
2022/06/20 12:46:06;;;;;;;4.43;1.15;;;17.90;99.90;;;;;;5026023;28;20053;-78
2022/06/20 12:48:41;;;;;;;;;;;18.00;99.90;;;;;;5030776;28;20060;-78
2022/06/20 12:51:25;;;;;;;4.53;1.27;;;18.30;99.90;;;;;;5037102;28;19928;-78
2022/06/20 12:54:21;;;;;;;3.97;2.00;;;18.80;99.90;;;;;;5028247;28;20498;-79
2022/06/20 12:57:16;;;;;;;4.97;0.95;;;19.20;99.90;;;;;;5025902;28;20045;-77
2022/06/20 12:59:47;;;;;;;3.33;1.38;;;18.70;99.90;;;;;;5015018;28;20068;-78
2022/06/20 13:02:41;;;;;;;3.40;1.20;;;18.20;99.90;;;;;;5023871;28;20126;-78
2022/06/20 13:05:09;;;;;;;5.07;1.38;;;18.00;99.90;;;;;;5043968;28;20041;-78
2022/06/20 13:07:41;;;;;;;3.42;1.83;;;17.90;99.90;;;;;;5010927;28;20106;-78
2022/06/20 13:10:37;;;;;;;5.18;1.33;;;18.20;99.90;;;;;;5023708;28;20048;-78
2022/06/20 13:13:19;;;;;;;6.50;1.88;;;18.60;99.90;;;;;;5009462;28;20085;-80
2022/06/20 13:15:48;;;;;;;7.90;1.75;;;18.50;99.90;;;;;;5018268;28;20068;-80
2022/06/20 13:19:06;;;;;;;3.72;1.25;;;17.70;99.90;;;;;;5025165;28;20045;-79
2022/06/20 13:21:47;;;;;;;11.43;1.92;;;17.40;99.90;;;;;;4930562;28;20051;-78
2022/06/20 13:24:36;;;;;;;4.03;1.35;;;17.20;99.90;;;;;;4944701;28;20043;-76
2022/06/20 13:27:27;;;;;;;4.05;1.70;;;17.20;99.90;;;;;;5011317;28;20173;-78
2022/06/20 13:30:03;;;;;;;7.20;2.28;;;17.30;99.90;;;;;;5026351;28;20098;-77
2022/06/20 13:32:40;;;;;;;3.88;1.65;;;18.20;99.90;;;;;;5023996;28;20087;-75
2022/06/20 13:35:51;;;;;;;3.30;1.45;;;18.60;99.90;;;;;;5040119;28;20071;-77
2022/06/20 13:38:40;;;;;;;6.18;1.65;;;18.80;99.90;;;;;;5045993;28;20055;-80
2022/06/20 13:41:16;;;;;;;7.45;1.42;;;18.80;99.90;;;;;;5031197;28;20045;-76
2022/06/20 13:44:26;;;;;;;5.18;1.90;;;17.90;99.90;;;;;;5011249;28;20049;-76
2022/06/20 13:47:16;;;;;;;3.85;1.65;;;18.10;99.90;;;;;;5031576;28;20492;-82
2022/06/20 13:50:03;;;;;;;5.05;1.38;;;17.70;99.90;;;;;;5040854;28;20041;-77
2022/06/20 13:52:45;;;;;;;5.68;1.95;;;17.70;99.90;;;;;;5041766;28;20045;-77
2022/06/20 13:55:25;;;;;;;3.13;1.05;;;17.90;99.90;;;;;;5027497;28;20045;-77
2022/06/20 13:58:02;;;;;;;2.40;1.23;;;17.90;99.90;;;;;;5043824;28;20033;-80